sensor_id;sensor_type;location;lat;lon;timestamp;pressure;altitude;pressure_sealevel;temperature;humidity
59329;BME280;45100;46.926;7.452;2023-06-10T00:02:45;94878.85;;;20.04;79.08
59329;BME280;45100;46.926;7.452;2023-06-10T00:05:17;94878.75;;;20.03;78.78
59329;BME280;45100;46.926;7.452;2023-06-10T00:07:47;94876.78;;;20.03;78.61
59329;BME280;45100;46.926;7.452;2023-06-10T00:10:17;94885.45;;;20.01;78.65
59329;BME280;45100;46.926;7.452;2023-06-10T00:12:48;94886.76;;;19.98;79.01
59329;BME280;45100;46.926;7.452;2023-06-10T00:15:19;94883.70;;;19.94;79.47
59329;BME280;45100;46.926;7.452;2023-06-10T00:17:50;94883.66;;;19.87;79.26
59329;BME280;45100;46.926;7.452;2023-06-10T00:20:24;94883.14;;;19.79;79.56
59329;BME280;45100;46.926;7.452;2023-06-10T00:22:52;94886.61;;;19.69;80.63
59329;BME280;45100;46.926;7.452;2023-06-10T00:25:21;94884.25;;;19.66;81.08
59329;BME280;45100;46.926;7.452;2023-06-10T00:27:52;94880.44;;;19.63;81.07
59329;BME280;45100;46.926;7.452;2023-06-10T00:30:22;94878.84;;;19.59;81.08
59329;BME280;45100;46.926;7.452;2023-06-10T00:32:53;94879.98;;;19.57;81.08
59329;BME280;45100;46.926;7.452;2023-06-10T00:35:24;94872.83;;;19.56;81.46
59329;BME280;45100;46.926;7.452;2023-06-10T00:37:55;94871.20;;;19.55;81.29
59329;BME280;45100;46.926;7.452;2023-06-10T00:40:25;94869.52;;;19.51;81.56
59329;BME280;45100;46.926;7.452;2023-06-10T00:42:56;94869.23;;;19.48;82.13
59329;BME280;45100;46.926;7.452;2023-06-10T00:45:27;94871.14;;;19.44;82.87
59329;BME280;45100;46.926;7.452;2023-06-10T00:47:58;94872.66;;;19.40;83.53
59329;BME280;45100;46.926;7.452;2023-06-10T00:50:28;94871.66;;;19.38;83.65
59329;BME280;45100;46.926;7.452;2023-06-10T00:52:59;94867.71;;;19.35;84.22
59329;BME280;45100;46.926;7.452;2023-06-10T00:55:29;94868.14;;;19.36;84.33
59329;BME280;45100;46.926;7.452;2023-06-10T00:58:00;94869.12;;;19.36;84.33
59329;BME280;45100;46.926;7.452;2023-06-10T01:00:30;94871.08;;;19.33;84.18
59329;BME280;45100;46.926;7.452;2023-06-10T01:03:01;94869.42;;;19.30;84.49
59329;BME280;45100;46.926;7.452;2023-06-10T01:05:31;94873.58;;;19.28;84.87
59329;BME280;45100;46.926;7.452;2023-06-10T01:08:35;94870.12;;;19.26;84.36
59329;BME280;45100;46.926;7.452;2023-06-10T01:10:43;94870.49;;;19.23;84.60
59329;BME280;45100;46.926;7.452;2023-06-10T01:15:38;94873.21;;;19.11;84.89
59329;BME280;45100;46.926;7.452;2023-06-10T01:18:17;94881.59;;;19.09;84.93
59329;BME280;45100;46.926;7.452;2023-06-10T01:20:42;94883.34;;;19.08;84.99
59329;BME280;45100;46.926;7.452;2023-06-10T01:23:10;94883.59;;;19.06;85.28
59329;BME280;45100;46.926;7.452;2023-06-10T01:25:51;94885.67;;;19.04;85.22
59329;BME280;45100;46.926;7.452;2023-06-10T01:31:08;94883.92;;;18.97;85.15
59329;BME280;45100;46.926;7.452;2023-06-10T01:33:16;94883.37;;;18.92;85.59
59329;BME280;45100;46.926;7.452;2023-06-10T01:35:43;94883.67;;;18.90;85.71
59329;BME280;45100;46.926;7.452;2023-06-10T01:38:14;94882.91;;;18.90;85.33
59329;BME280;45100;46.926;7.452;2023-06-10T01:40:43;94884.73;;;18.92;85.84
59329;BME280;45100;46.926;7.452;2023-06-10T01:43:13;94889.55;;;18.96;85.75
59329;BME280;45100;46.926;7.452;2023-06-10T01:45:44;94891.48;;;18.98;85.74
59329;BME280;45100;46.926;7.452;2023-06-10T01:48:15;94893.60;;;18.99;85.37
59329;BME280;45100;46.926;7.452;2023-06-10T01:50:45;94896.00;;;19.00;85.13
59329;BME280;45100;46.926;7.452;2023-06-10T01:53:16;94898.73;;;18.99;85.16
59329;BME280;45100;46.926;7.452;2023-06-10T01:55:46;94896.22;;;18.98;85.28
59329;BME280;45100;46.926;7.452;2023-06-10T01:58:17;94896.86;;;18.97;85.13
59329;BME280;45100;46.926;7.452;2023-06-10T02:00:47;94895.44;;;18.96;85.86
59329;BME280;45100;46.926;7.452;2023-06-10T02:03:19;94893.52;;;18.93;86.28
59329;BME280;45100;46.926;7.452;2023-06-10T02:05:49;94895.64;;;18.93;86.67
59329;BME280;45100;46.926;7.452;2023-06-10T02:08:18;94890.00;;;18.90;86.97
59329;BME280;45100;46.926;7.452;2023-06-10T02:10:49;94894.04;;;18.89;86.97
59329;BME280;45100;46.926;7.452;2023-06-10T02:13:19;94893.33;;;18.88;87.29
59329;BME280;45100;46.926;7.452;2023-06-10T02:15:50;94892.19;;;18.88;87.40
59329;BME280;45100;46.926;7.452;2023-06-10T02:18:21;94891.25;;;18.90;87.39
59329;BME280;45100;46.926;7.452;2023-06-10T02:20:51;94894.00;;;18.92;86.88
59329;BME280;45100;46.926;7.452;2023-06-10T02:23:22;94894.44;;;18.92;86.81
59329;BME280;45100;46.926;7.452;2023-06-10T02:25:53;94892.59;;;18.92;86.60
59329;BME280;45100;46.926;7.452;2023-06-10T02:28:23;94895.67;;;18.90;86.21
59329;BME280;45100;46.926;7.452;2023-06-10T02:30:54;94894.89;;;18.88;86.16
59329;BME280;45100;46.926;7.452;2023-06-10T02:33:25;94894.98;;;18.84;86.43
59329;BME280;45100;46.926;7.452;2023-06-10T02:35:56;94899.92;;;18.80;87.10
59329;BME280;45100;46.926;7.452;2023-06-10T02:38:25;94899.69;;;18.77;87.54
59329;BME280;45100;46.926;7.452;2023-06-10T02:40:56;94898.86;;;18.77;87.56
59329;BME280;45100;46.926;7.452;2023-06-10T02:43:27;94901.02;;;18.79;87.46
59329;BME280;45100;46.926;7.452;2023-06-10T02:45:57;94901.23;;;18.80;87.52
59329;BME280;45100;46.926;7.452;2023-06-10T02:48:28;94902.05;;;18.81;87.17
59329;BME280;45100;46.926;7.452;2023-06-10T02:50:58;94903.58;;;18.81;86.89
59329;BME280;45100;46.926;7.452;2023-06-10T02:53:29;94900.52;;;18.81;86.77
59329;BME280;45100;46.926;7.452;2023-06-10T02:56:00;94904.53;;;18.83;86.99
59329;BME280;45100;46.926;7.452;2023-06-10T02:58:31;94909.33;;;18.84;86.55
59329;BME280;45100;46.926;7.452;2023-06-10T03:01:01;94913.77;;;18.85;86.93
59329;BME280;45100;46.926;7.452;2023-06-10T03:03:34;94913.11;;;18.87;87.23
59329;BME280;45100;46.926;7.452;2023-06-10T03:06:03;94908.70;;;18.86;87.18
59329;BME280;45100;46.926;7.452;2023-06-10T03:08:33;94912.22;;;18.83;87.29
59329;BME280;45100;46.926;7.452;2023-06-10T03:11:03;94909.39;;;18.79;87.22
59329;BME280;45100;46.926;7.452;2023-06-10T03:13:34;94912.53;;;18.70;87.42
59329;BME280;45100;46.926;7.452;2023-06-10T03:16:05;94918.78;;;18.64;88.03
59329;BME280;45100;46.926;7.452;2023-06-10T03:18:36;94916.97;;;18.60;88.54
59329;BME280;45100;46.926;7.452;2023-06-10T03:21:06;94920.92;;;18.57;88.14
59329;BME280;45100;46.926;7.452;2023-06-10T03:23:37;94918.93;;;18.53;88.44
59329;BME280;45100;46.926;7.452;2023-06-10T03:26:08;94917.52;;;18.52;88.64
59329;BME280;45100;46.926;7.452;2023-06-10T03:28:38;94917.87;;;18.51;88.78
59329;BME280;45100;46.926;7.452;2023-06-10T03:31:09;94919.97;;;18.52;88.99
59329;BME280;45100;46.926;7.452;2023-06-10T03:33:39;94919.58;;;18.54;88.97
59329;BME280;45100;46.926;7.452;2023-06-10T03:36:10;94919.77;;;18.57;88.83
59329;BME280;45100;46.926;7.452;2023-06-10T03:38:41;94922.91;;;18.60;88.47
59329;BME280;45100;46.926;7.452;2023-06-10T03:41:11;94927.11;;;18.60;87.93
59329;BME280;45100;46.926;7.452;2023-06-10T03:43:41;94926.45;;;18.58;88.47
59329;BME280;45100;46.926;7.452;2023-06-10T03:46:12;94923.84;;;18.59;88.75
59329;BME280;45100;46.926;7.452;2023-06-10T03:48:44;94924.88;;;18.58;88.74
59329;BME280;45100;46.926;7.452;2023-06-10T03:51:13;94925.98;;;18.57;88.77
59329;BME280;45100;46.926;7.452;2023-06-10T03:53:44;94926.81;;;18.56;88.75
59329;BME280;45100;46.926;7.452;2023-06-10T03:56:14;94925.31;;;18.53;88.81
59329;BME280;45100;46.926;7.452;2023-06-10T03:58:45;94928.80;;;18.48;88.89
59329;BME280;45100;46.926;7.452;2023-06-10T04:01:15;94927.47;;;18.43;89.55
59329;BME280;45100;46.926;7.452;2023-06-10T04:03:46;94929.19;;;18.42;90.23
59329;BME280;45100;46.926;7.452;2023-06-10T04:06:16;94929.38;;;18.44;90.76
59329;BME280;45100;46.926;7.452;2023-06-10T04:11:21;94930.66;;;18.53;90.19
59329;BME280;45100;46.926;7.452;2023-06-10T04:13:51;94932.38;;;18.56;89.89
59329;BME280;45100;46.926;7.452;2023-06-10T04:16:22;94931.23;;;18.56;90.36
59329;BME280;45100;46.926;7.452;2023-06-10T04:18:52;94931.47;;;18.59;90.60
59329;BME280;45100;46.926;7.452;2023-06-10T04:21:23;94932.42;;;18.62;90.48
59329;BME280;45100;46.926;7.452;2023-06-10T04:23:54;94937.20;;;18.66;90.21
59329;BME280;45100;46.926;7.452;2023-06-10T04:26:24;94935.64;;;18.68;89.71
59329;BME280;45100;46.926;7.452;2023-06-10T04:28:55;94933.76;;;18.65;89.05
59329;BME280;45100;46.926;7.452;2023-06-10T04:31:26;94934.36;;;18.58;89.55
59329;BME280;45100;46.926;7.452;2023-06-10T04:33:56;94934.36;;;18.52;90.00
59329;BME280;45100;46.926;7.452;2023-06-10T04:36:29;94939.33;;;18.47;90.40
59329;BME280;45100;46.926;7.452;2023-06-10T04:38:57;94945.57;;;18.43;90.87
59329;BME280;45100;46.926;7.452;2023-06-10T04:41:28;94952.11;;;18.43;90.95
59329;BME280;45100;46.926;7.452;2023-06-10T04:43:59;94952.17;;;18.44;90.65
59329;BME280;45100;46.926;7.452;2023-06-10T04:46:32;94954.27;;;18.46;90.00
59329;BME280;45100;46.926;7.452;2023-06-10T04:49:00;94954.38;;;18.48;90.00
59329;BME280;45100;46.926;7.452;2023-06-10T04:51:31;94955.25;;;18.47;89.55
59329;BME280;45100;46.926;7.452;2023-06-10T04:54:04;94953.75;;;18.45;89.27
59329;BME280;45100;46.926;7.452;2023-06-10T04:56:32;94951.11;;;18.42;88.95
59329;BME280;45100;46.926;7.452;2023-06-10T04:59:02;94953.42;;;18.38;89.44
59329;BME280;45100;46.926;7.452;2023-06-10T05:01:33;94955.16;;;18.37;89.48
59329;BME280;45100;46.926;7.452;2023-06-10T05:04:05;94956.47;;;18.37;89.72
59329;BME280;45100;46.926;7.452;2023-06-10T05:06:36;94958.22;;;18.37;89.78
59329;BME280;45100;46.926;7.452;2023-06-10T05:09:06;94962.52;;;18.37;89.99
59329;BME280;45100;46.926;7.452;2023-06-10T05:11:35;94961.38;;;18.37;89.95
59329;BME280;45100;46.926;7.452;2023-06-10T05:14:06;94967.87;;;18.37;90.21
59329;BME280;45100;46.926;7.452;2023-06-10T05:16:37;94968.22;;;18.36;90.57
59329;BME280;45100;46.926;7.452;2023-06-10T05:19:07;94969.88;;;18.37;90.54
59329;BME280;45100;46.926;7.452;2023-06-10T05:21:38;94965.25;;;18.39;90.04
59329;BME280;45100;46.926;7.452;2023-06-10T05:24:09;94967.57;;;18.40;89.99
59329;BME280;45100;46.926;7.452;2023-06-10T05:26:41;94968.83;;;18.42;90.08
59329;BME280;45100;46.926;7.452;2023-06-10T05:29:10;94970.11;;;18.43;90.23
59329;BME280;45100;46.926;7.452;2023-06-10T05:31:41;94972.64;;;18.48;90.17
59329;BME280;45100;46.926;7.452;2023-06-10T05:34:11;94976.71;;;18.51;89.94
59329;BME280;45100;46.926;7.452;2023-06-10T05:36:42;94974.20;;;18.51;89.15
59329;BME280;45100;46.926;7.452;2023-06-10T05:39:13;94976.49;;;18.50;89.39
59329;BME280;45100;46.926;7.452;2023-06-10T05:41:43;94975.34;;;18.49;89.73
59329;BME280;45100;46.926;7.452;2023-06-10T05:44:14;94979.19;;;18.48;89.70
59329;BME280;45100;46.926;7.452;2023-06-10T05:46:45;94977.94;;;18.48;89.70
59329;BME280;45100;46.926;7.452;2023-06-10T05:49:15;94977.06;;;18.48;89.49
59329;BME280;45100;46.926;7.452;2023-06-10T05:51:46;94975.20;;;18.48;89.48
59329;BME280;45100;46.926;7.452;2023-06-10T05:54:16;94977.06;;;18.48;89.17
59329;BME280;45100;46.926;7.452;2023-06-10T05:56:47;94978.64;;;18.48;89.52
59329;BME280;45100;46.926;7.452;2023-06-10T05:59:18;94976.08;;;18.48;89.32
59329;BME280;45100;46.926;7.452;2023-06-10T06:01:49;94977.39;;;18.47;89.65
59329;BME280;45100;46.926;7.452;2023-06-10T06:04:19;94980.69;;;18.46;89.66
59329;BME280;45100;46.926;7.452;2023-06-10T06:06:49;94981.45;;;18.45;89.43
59329;BME280;45100;46.926;7.452;2023-06-10T06:09:20;94981.02;;;18.43;89.15
59329;BME280;45100;46.926;7.452;2023-06-10T06:11:51;94983.22;;;18.41;88.98
59329;BME280;45100;46.926;7.452;2023-06-10T06:14:22;94978.98;;;18.37;89.08
59329;BME280;45100;46.926;7.452;2023-06-10T06:16:52;94983.16;;;18.34;89.49
59329;BME280;45100;46.926;7.452;2023-06-10T06:21:56;94981.16;;;18.32;89.92
59329;BME280;45100;46.926;7.452;2023-06-10T06:24:26;94975.36;;;18.34;90.03
59329;BME280;45100;46.926;7.452;2023-06-10T06:26:57;94970.84;;;18.40;89.99
59329;BME280;45100;46.926;7.452;2023-06-10T06:29:30;94973.98;;;18.49;89.93
59329;BME280;45100;46.926;7.452;2023-06-10T06:31:58;94976.85;;;18.60;89.57
59329;BME280;45100;46.926;7.452;2023-06-10T06:34:29;94971.78;;;18.74;89.21
59329;BME280;45100;46.926;7.452;2023-06-10T06:36:58;94977.93;;;18.87;88.51
59329;BME280;45100;46.926;7.452;2023-06-10T06:39:29;94979.89;;;18.99;87.38
59329;BME280;45100;46.926;7.452;2023-06-10T06:42:00;94978.05;;;19.07;87.23
59329;BME280;45100;46.926;7.452;2023-06-10T06:44:31;94977.55;;;19.14;86.47
59329;BME280;45100;46.926;7.452;2023-06-10T06:47:02;94979.55;;;19.18;86.25
59329;BME280;45100;46.926;7.452;2023-06-10T06:49:32;94981.47;;;19.29;86.08
59329;BME280;45100;46.926;7.452;2023-06-10T06:52:04;94979.12;;;19.38;85.88
59329;BME280;45100;46.926;7.452;2023-06-10T06:54:34;94983.66;;;19.48;85.04
59329;BME280;45100;46.926;7.452;2023-06-10T06:57:05;94981.83;;;19.54;84.52
59329;BME280;45100;46.926;7.452;2023-06-10T06:59:35;94984.55;;;19.58;84.10
59329;BME280;45100;46.926;7.452;2023-06-10T07:02:06;94984.28;;;19.65;84.03
59329;BME280;45100;46.926;7.452;2023-06-10T07:04:36;94982.41;;;19.75;83.96
59329;BME280;45100;46.926;7.452;2023-06-10T07:07:08;94986.00;;;19.84;83.48
59329;BME280;45100;46.926;7.452;2023-06-10T07:09:38;94985.83;;;19.93;82.45
59329;BME280;45100;46.926;7.452;2023-06-10T07:12:08;94989.84;;;19.97;81.84
59329;BME280;45100;46.926;7.452;2023-06-10T07:14:38;94985.65;;;20.01;81.61
59329;BME280;45100;46.926;7.452;2023-06-10T07:17:09;94988.47;;;20.06;81.00
59329;BME280;45100;46.926;7.452;2023-06-10T07:19:39;94992.58;;;20.10;80.89
59329;BME280;45100;46.926;7.452;2023-06-10T07:22:10;94996.11;;;20.12;80.39
59329;BME280;45100;46.926;7.452;2023-06-10T07:24:41;94998.69;;;20.11;79.85
59329;BME280;45100;46.926;7.452;2023-06-10T07:27:12;95005.36;;;20.11;80.67
59329;BME280;45100;46.926;7.452;2023-06-10T07:29:43;95002.59;;;20.12;80.32
59329;BME280;45100;46.926;7.452;2023-06-10T07:32:14;95007.55;;;20.15;80.24
59329;BME280;45100;46.926;7.452;2023-06-10T07:34:44;95006.59;;;20.17;79.39
59329;BME280;45100;46.926;7.452;2023-06-10T07:37:15;95007.86;;;20.18;79.64
59329;BME280;45100;46.926;7.452;2023-06-10T07:39:45;95006.71;;;20.24;79.37
59329;BME280;45100;46.926;7.452;2023-06-10T07:42:16;95013.36;;;20.32;79.32
59329;BME280;45100;46.926;7.452;2023-06-10T07:44:47;95005.86;;;20.39;78.79
59329;BME280;45100;46.926;7.452;2023-06-10T07:47:18;95008.31;;;20.44;79.00
59329;BME280;45100;46.926;7.452;2023-06-10T07:49:49;95006.16;;;20.54;79.09
59329;BME280;45100;46.926;7.452;2023-06-10T07:52:19;95008.29;;;20.67;78.59
59329;BME280;45100;46.926;7.452;2023-06-10T07:54:49;95007.41;;;20.78;78.11
59329;BME280;45100;46.926;7.452;2023-06-10T07:57:20;95009.39;;;20.88;77.16
59329;BME280;45100;46.926;7.452;2023-06-10T07:59:51;95009.31;;;20.97;77.23
59329;BME280;45100;46.926;7.452;2023-06-10T08:02:22;95008.87;;;21.07;76.23
59329;BME280;45100;46.926;7.452;2023-06-10T08:04:52;95009.64;;;21.15;75.64
59329;BME280;45100;46.926;7.452;2023-06-10T08:09:56;95013.47;;;21.19;75.14
59329;BME280;45100;46.926;7.452;2023-06-10T08:12:26;95006.44;;;21.21;75.28
59329;BME280;45100;46.926;7.452;2023-06-10T08:14:57;95009.39;;;21.27;74.74
59329;BME280;45100;46.926;7.452;2023-06-10T08:17:28;95012.02;;;21.33;74.26
59329;BME280;45100;46.926;7.452;2023-06-10T08:19:59;95005.03;;;21.42;73.07
59329;BME280;45100;46.926;7.452;2023-06-10T08:22:30;95002.11;;;21.51;72.95
59329;BME280;45100;46.926;7.452;2023-06-10T08:24:59;95003.27;;;21.58;72.66
59329;BME280;45100;46.926;7.452;2023-06-10T08:27:30;95005.07;;;21.61;72.08
59329;BME280;45100;46.926;7.452;2023-06-10T08:30:01;95006.42;;;21.65;71.89
59329;BME280;45100;46.926;7.452;2023-06-10T08:32:32;95002.07;;;21.72;71.55
59329;BME280;45100;46.926;7.452;2023-06-10T08:35:03;95002.12;;;21.77;70.95
59329;BME280;45100;46.926;7.452;2023-06-10T08:37:33;95001.44;;;21.81;70.64
59329;BME280;45100;46.926;7.452;2023-06-10T08:40:04;95000.66;;;21.89;70.87
59329;BME280;45100;46.926;7.452;2023-06-10T08:42:39;94998.88;;;21.98;70.20
59329;BME280;45100;46.926;7.452;2023-06-10T08:45:07;94999.16;;;22.05;69.81
59329;BME280;45100;46.926;7.452;2023-06-10T08:47:38;94997.60;;;22.16;69.31
59329;BME280;45100;46.926;7.452;2023-06-10T08:50:07;94996.05;;;22.26;69.15
59329;BME280;45100;46.926;7.452;2023-06-10T08:52:42;94991.85;;;22.33;68.95
59329;BME280;45100;46.926;7.452;2023-06-10T08:55:21;94993.11;;;22.43;68.99
59329;BME280;45100;46.926;7.452;2023-06-10T08:57:40;94989.52;;;22.57;67.82
59329;BME280;45100;46.926;7.452;2023-06-10T09:00:10;94983.64;;;22.72;67.57
59329;BME280;45100;46.926;7.452;2023-06-10T09:02:40;94989.77;;;22.84;66.87
59329;BME280;45100;46.926;7.452;2023-06-10T09:05:11;94990.09;;;22.90;66.14
59329;BME280;45100;46.926;7.452;2023-06-10T09:07:41;94990.64;;;22.97;66.25
59329;BME280;45100;46.926;7.452;2023-06-10T09:10:12;94987.70;;;23.09;65.71
59329;BME280;45100;46.926;7.452;2023-06-10T09:12:42;94990.49;;;23.24;65.02
59329;BME280;45100;46.926;7.452;2023-06-10T09:15:17;94989.09;;;23.36;64.68
59329;BME280;45100;46.926;7.452;2023-06-10T09:17:43;94989.14;;;23.45;64.27
59329;BME280;45100;46.926;7.452;2023-06-10T09:20:14;94985.84;;;23.56;64.49
59329;BME280;45100;46.926;7.452;2023-06-10T09:25:18;94983.06;;;23.71;62.52
59329;BME280;45100;46.926;7.452;2023-06-10T09:30:28;94985.73;;;23.85;61.97
59329;BME280;45100;46.926;7.452;2023-06-10T09:32:58;94984.03;;;23.98;62.07
59329;BME280;45100;46.926;7.452;2023-06-10T09:35:28;94981.76;;;24.15;61.81
59329;BME280;45100;46.926;7.452;2023-06-10T09:37:58;94984.61;;;24.28;60.56
59329;BME280;45100;46.926;7.452;2023-06-10T09:40:28;94980.06;;;24.42;60.76
59329;BME280;45100;46.926;7.452;2023-06-10T09:43:00;94979.45;;;24.60;60.22
59329;BME280;45100;46.926;7.452;2023-06-10T09:45:30;94973.59;;;24.74;59.06
59329;BME280;45100;46.926;7.452;2023-06-10T09:47:58;94979.41;;;24.87;58.16
59329;BME280;45100;46.926;7.452;2023-06-10T09:50:33;94973.44;;;24.96;56.93
59329;BME280;45100;46.926;7.452;2023-06-10T09:53:00;94972.34;;;25.09;56.69
59329;BME280;45100;46.926;7.452;2023-06-10T09:55:32;94970.56;;;25.18;55.90
59329;BME280;45100;46.926;7.452;2023-06-10T09:58:00;94967.17;;;25.16;55.67
59329;BME280;45100;46.926;7.452;2023-06-10T10:03:04;94966.37;;;24.93;54.10
59329;BME280;45100;46.926;7.452;2023-06-10T10:05:33;94966.30;;;24.76;54.78
59329;BME280;45100;46.926;7.452;2023-06-10T10:08:04;94963.65;;;24.65;54.34
59329;BME280;45100;46.926;7.452;2023-06-10T10:10:35;94963.76;;;24.61;55.74
59329;BME280;45100;46.926;7.452;2023-06-10T10:13:05;94961.84;;;24.68;54.80
59329;BME280;45100;46.926;7.452;2023-06-10T10:15:42;94964.55;;;24.78;52.31
59329;BME280;45100;46.926;7.452;2023-06-10T10:18:14;94961.17;;;24.76;52.25
59329;BME280;45100;46.926;7.452;2023-06-10T10:20:47;94959.38;;;24.79;51.50
59329;BME280;45100;46.926;7.452;2023-06-10T10:23:08;94950.62;;;24.96;51.40
59329;BME280;45100;46.926;7.452;2023-06-10T10:25:40;94952.23;;;25.24;51.39
59329;BME280;45100;46.926;7.452;2023-06-10T10:28:09;94945.53;;;25.41;50.04
59329;BME280;45100;46.926;7.452;2023-06-10T10:30:49;94952.81;;;25.54;49.83
59329;BME280;45100;46.926;7.452;2023-06-10T10:33:13;94948.11;;;25.65;50.27
59329;BME280;45100;46.926;7.452;2023-06-10T10:35:39;94944.85;;;25.72;49.57
59329;BME280;45100;46.926;7.452;2023-06-10T10:38:09;94945.40;;;25.74;50.42
59329;BME280;45100;46.926;7.452;2023-06-10T10:40:41;94946.20;;;25.79;50.07
59329;BME280;45100;46.926;7.452;2023-06-10T10:45:46;94940.95;;;25.90;48.60
59329;BME280;45100;46.926;7.452;2023-06-10T10:48:14;94934.02;;;25.79;48.98
59329;BME280;45100;46.926;7.452;2023-06-10T10:50:58;94943.70;;;25.69;48.81
59329;BME280;45100;46.926;7.452;2023-06-10T10:53:19;94941.38;;;25.45;48.85
59329;BME280;45100;46.926;7.452;2023-06-10T10:55:59;94942.64;;;25.24;49.34
59329;BME280;45100;46.926;7.452;2023-06-10T10:58:24;94941.88;;;25.09;49.39
59329;BME280;45100;46.926;7.452;2023-06-10T11:00:48;94939.17;;;24.99;50.21
59329;BME280;45100;46.926;7.452;2023-06-10T11:03:17;94938.60;;;24.93;51.13
59329;BME280;45100;46.926;7.452;2023-06-10T11:05:51;94943.05;;;24.87;51.60
59329;BME280;45100;46.926;7.452;2023-06-10T11:10:52;94934.88;;;25.19;51.09
59329;BME280;45100;46.926;7.452;2023-06-10T11:15:57;94929.61;;;25.81;48.90
59329;BME280;45100;46.926;7.452;2023-06-10T11:18:28;94928.06;;;26.00;47.94
59329;BME280;45100;46.926;7.452;2023-06-10T11:20:59;94925.40;;;26.11;46.79
59329;BME280;45100;46.926;7.452;2023-06-10T11:23:32;94923.69;;;26.21;46.77
59329;BME280;45100;46.926;7.452;2023-06-10T11:26:10;94918.97;;;26.32;46.28
59329;BME280;45100;46.926;7.452;2023-06-10T11:28:27;94914.24;;;26.37;46.52
59329;BME280;45100;46.926;7.452;2023-06-10T11:30:58;94918.77;;;26.42;45.10
59329;BME280;45100;46.926;7.452;2023-06-10T11:33:25;94917.42;;;26.51;45.32
59329;BME280;45100;46.926;7.452;2023-06-10T11:35:56;94918.92;;;26.63;45.32
59329;BME280;45100;46.926;7.452;2023-06-10T11:38:28;94917.00;;;26.74;45.13
59329;BME280;45100;46.926;7.452;2023-06-10T11:40:57;94909.09;;;26.98;44.45
59329;BME280;45100;46.926;7.452;2023-06-10T11:43:28;94905.57;;;27.26;43.73
59329;BME280;45100;46.926;7.452;2023-06-10T11:45:58;94906.45;;;27.50;43.28
59329;BME280;45100;46.926;7.452;2023-06-10T11:51:07;94908.60;;;27.72;42.52
59329;BME280;45100;46.926;7.452;2023-06-10T11:53:37;94905.48;;;27.72;42.93
59329;BME280;45100;46.926;7.452;2023-06-10T11:56:08;94896.06;;;27.66;42.16
59329;BME280;45100;46.926;7.452;2023-06-10T11:58:43;94898.82;;;27.54;42.75
59329;BME280;45100;46.926;7.452;2023-06-10T12:01:09;94897.88;;;27.39;43.54
59329;BME280;45100;46.926;7.452;2023-06-10T12:03:40;94900.06;;;27.23;43.66
59329;BME280;45100;46.926;7.452;2023-06-10T12:06:11;94901.83;;;27.03;43.12
59329;BME280;45100;46.926;7.452;2023-06-10T12:08:42;94901.15;;;26.86;42.76
59329;BME280;45100;46.926;7.452;2023-06-10T12:11:12;94897.49;;;26.67;43.34
59329;BME280;45100;46.926;7.452;2023-06-10T12:13:48;94896.95;;;26.51;43.56
59329;BME280;45100;46.926;7.452;2023-06-10T12:16:13;94893.39;;;26.35;44.00
59329;BME280;45100;46.926;7.452;2023-06-10T12:18:44;94893.53;;;26.32;44.03
59329;BME280;45100;46.926;7.452;2023-06-10T12:21:17;94897.58;;;26.36;44.16
59329;BME280;45100;46.926;7.452;2023-06-10T12:24:00;94900.30;;;26.44;43.60
59329;BME280;45100;46.926;7.452;2023-06-10T12:26:14;94897.09;;;26.56;43.72
59329;BME280;45100;46.926;7.452;2023-06-10T12:28:50;94890.08;;;26.70;43.46
59329;BME280;45100;46.926;7.452;2023-06-10T12:31:16;94888.49;;;26.77;43.25
59329;BME280;45100;46.926;7.452;2023-06-10T12:34:07;94885.95;;;26.81;43.63
59329;BME280;45100;46.926;7.452;2023-06-10T12:36:18;94878.89;;;26.99;43.28
59329;BME280;45100;46.926;7.452;2023-06-10T12:39:02;94878.11;;;27.25;42.95
59329;BME280;45100;46.926;7.452;2023-06-10T12:41:18;94877.05;;;27.51;41.98
59329;BME280;45100;46.926;7.452;2023-06-10T12:43:49;94873.95;;;27.75;41.55
59329;BME280;45100;46.926;7.452;2023-06-10T12:46:19;94872.55;;;27.98;41.24
59329;BME280;45100;46.926;7.452;2023-06-10T12:48:50;94868.56;;;28.15;41.29
59329;BME280;45100;46.926;7.452;2023-06-10T12:51:20;94863.55;;;28.23;41.15
59329;BME280;45100;46.926;7.452;2023-06-10T12:53:50;94865.38;;;28.19;41.45
59329;BME280;45100;46.926;7.452;2023-06-10T12:56:22;94863.86;;;28.13;41.26
59329;BME280;45100;46.926;7.452;2023-06-10T12:58:51;94859.86;;;28.12;40.67
59329;BME280;45100;46.926;7.452;2023-06-10T13:01:22;94854.19;;;28.14;40.55
59329;BME280;45100;46.926;7.452;2023-06-10T13:03:52;94855.24;;;28.23;40.00
59329;BME280;45100;46.926;7.452;2023-06-10T13:06:23;94853.86;;;28.39;40.12
59329;BME280;45100;46.926;7.452;2023-06-10T13:08:53;94846.86;;;28.56;39.91
59329;BME280;45100;46.926;7.452;2023-06-10T13:11:26;94848.89;;;28.65;39.91
59329;BME280;45100;46.926;7.452;2023-06-10T13:13:54;94838.46;;;28.71;39.59
59329;BME280;45100;46.926;7.452;2023-06-10T13:16:26;94840.75;;;28.78;39.12
59329;BME280;45100;46.926;7.452;2023-06-10T13:18:56;94836.50;;;28.82;39.23
59329;BME280;45100;46.926;7.452;2023-06-10T13:21:26;94831.69;;;28.88;38.97
59329;BME280;45100;46.926;7.452;2023-06-10T13:23:57;94830.22;;;28.92;38.51
59329;BME280;45100;46.926;7.452;2023-06-10T13:26:27;94826.35;;;28.92;38.39
59329;BME280;45100;46.926;7.452;2023-06-10T13:28:58;94821.81;;;28.79;38.38
59329;BME280;45100;46.926;7.452;2023-06-10T13:31:29;94818.20;;;28.57;39.46
59329;BME280;45100;46.926;7.452;2023-06-10T13:34:00;94821.54;;;28.38;40.26
59329;BME280;45100;46.926;7.452;2023-06-10T13:36:30;94828.25;;;28.27;39.60
59329;BME280;45100;46.926;7.452;2023-06-10T13:39:01;94832.30;;;28.20;39.39
59329;BME280;45100;46.926;7.452;2023-06-10T13:41:31;94833.25;;;28.03;39.65
59329;BME280;45100;46.926;7.452;2023-06-10T13:44:02;94830.66;;;27.86;40.32
59329;BME280;45100;46.926;7.452;2023-06-10T13:46:33;94821.73;;;27.75;40.18
59329;BME280;45100;46.926;7.452;2023-06-10T13:49:03;94821.77;;;27.66;40.64